createdAt,value
2022-08-07T00:00:55.251Z,30.05
2022-08-07T00:03:50.231Z,30.04
2022-08-07T00:06:51.929Z,30.03
2022-08-07T00:09:50.196Z,30.04
2022-08-07T00:13:00.748Z,30.04
2022-08-07T00:15:53.994Z,30.04
2022-08-07T00:18:45.610Z,30.07
2022-08-07T00:21:57.362Z,30.08
2022-08-07T00:24:47.404Z,30.07
2022-08-07T00:27:53.774Z,30.06
2022-08-07T00:30:47.256Z,30.03
2022-08-07T00:33:38.869Z,30.02
2022-08-07T00:36:33.011Z,30.00
2022-08-07T00:39:23.997Z,29.96
2022-08-07T00:42:14.416Z,29.93
2022-08-07T00:45:16.089Z,29.86
2022-08-07T00:48:10.412Z,29.75
2022-08-07T00:51:02.936Z,29.70
2022-08-07T00:53:55.359Z,29.69
2022-08-07T00:56:47.341Z,29.73
2022-08-07T00:59:41.622Z,29.81
2022-08-07T01:02:31.994Z,29.90
2022-08-07T01:05:24.728Z,29.98
2022-08-07T01:08:17.215Z,30.02
2022-08-07T01:12:04.266Z,30.06
2022-08-07T01:14:28.786Z,30.08
2022-08-07T01:17:20.559Z,30.09
2022-08-07T01:20:16.673Z,30.08
2022-08-07T01:23:12.226Z,30.05
2022-08-07T01:26:07.158Z,30.04
2022-08-07T01:29:09.197Z,30.03
2022-08-07T01:32:00.974Z,30.03
2022-08-07T01:34:57.421Z,30.04
2022-08-07T01:37:48.666Z,30.05
2022-08-07T01:40:41.875Z,30.08
2022-08-07T01:43:34.650Z,30.10
2022-08-07T01:46:31.288Z,30.02
2022-08-07T01:49:22.353Z,29.93
2022-08-07T01:52:15.375Z,29.94
2022-08-07T01:55:08.507Z,29.90
2022-08-07T01:58:27.151Z,29.82
2022-08-07T02:01:58.829Z,29.81
2022-08-07T02:04:55.895Z,29.81
2022-08-07T02:07:53.815Z,29.78
2022-08-07T02:10:58.691Z,29.72
2022-08-07T02:13:57.551Z,29.66
2022-08-07T02:16:53.036Z,29.62
2022-08-07T02:20:05.280Z,29.58
2022-08-07T02:23:01.903Z,29.56
2022-08-07T02:26:32.023Z,29.46
2022-08-07T02:29:13.685Z,29.42
2022-08-07T02:32:10.854Z,29.35
2022-08-07T02:35:06.152Z,29.36
2022-08-07T02:38:04.225Z,29.37
2022-08-07T02:40:56.342Z,29.38
2022-08-07T02:43:49.113Z,29.34
2022-08-07T02:46:46.672Z,29.28
2022-08-07T02:49:58.549Z,29.26
2022-08-07T02:53:00.881Z,29.22
2022-08-07T02:56:04.136Z,29.19
2022-08-07T02:59:01.955Z,29.18
2022-08-07T03:01:55.379Z,29.21
2022-08-07T03:04:48.607Z,29.23
2022-08-07T03:07:58.840Z,29.20
2022-08-07T03:10:54.381Z,29.20
2022-08-07T03:13:57.685Z,29.21
2022-08-07T03:16:53.368Z,29.15
2022-08-07T03:19:45.098Z,29.16
2022-08-07T03:22:50.212Z,29.18
2022-08-07T03:25:44.276Z,29.22
2022-08-07T03:28:43.461Z,29.27
2022-08-07T03:31:43.200Z,29.31
2022-08-07T03:34:39.341Z,29.33
2022-08-07T03:37:32.557Z,29.28
2022-08-07T03:40:35.961Z,29.28
2022-08-07T03:43:32.915Z,29.25
2022-08-07T03:46:25.059Z,29.24
2022-08-07T03:49:18.331Z,29.24
2022-08-07T03:52:15.939Z,29.24
2022-08-07T03:55:19.351Z,29.23
2022-08-07T03:59:04.903Z,29.23
2022-08-07T04:01:22.950Z,29.22
2022-08-07T04:04:17.427Z,29.24
2022-08-07T04:07:17.555Z,29.25
2022-08-07T04:10:15.503Z,29.25
2022-08-07T04:13:08.113Z,29.27
2022-08-07T04:16:06.751Z,29.27
2022-08-07T04:19:14.725Z,29.29
2022-08-07T04:22:14.435Z,29.31
2022-08-07T04:25:08.688Z,29.30
2022-08-07T04:28:06.591Z,29.29
2022-08-07T04:30:58.632Z,29.30
2022-08-07T04:33:56.654Z,29.30
2022-08-07T04:36:49.609Z,29.30
2022-08-07T04:39:47.890Z,29.29
2022-08-07T04:42:43.722Z,29.24
2022-08-07T04:45:57.609Z,29.16
2022-08-07T04:49:02.140Z,29.21
2022-08-07T04:52:06.746Z,29.25
2022-08-07T04:55:14.954Z,29.28
2022-08-07T04:58:49.700Z,29.35
2022-08-07T05:01:44.267Z,29.40
2022-08-07T05:04:47.221Z,29.40
2022-08-07T05:07:48.526Z,29.38
2022-08-07T05:10:46.680Z,29.36
2022-08-07T05:14:54.374Z,29.29
2022-08-07T05:17:00.370Z,29.24
2022-08-07T05:19:54.507Z,29.23
2022-08-07T05:22:49.346Z,29.34
2022-08-07T05:26:13.221Z,29.60
2022-08-07T05:29:00.266Z,29.81
2022-08-07T05:32:00.961Z,29.96
2022-08-07T05:34:58.472Z,30.03
2022-08-07T05:38:09.116Z,30.10
2022-08-07T05:41:01.866Z,30.21
2022-08-07T05:44:12.212Z,30.28
2022-08-07T05:47:18.263Z,30.32
2022-08-07T05:50:16.315Z,30.39
2022-08-07T05:53:07.265Z,30.44
2022-08-07T05:56:20.411Z,30.48
2022-08-07T05:59:22.794Z,30.42
2022-08-07T06:02:28.922Z,30.42
2022-08-07T06:05:26.001Z,30.51
2022-08-07T06:08:30.123Z,30.57
2022-08-07T06:11:22.527Z,30.53
2022-08-07T06:14:20.864Z,30.35
2022-08-07T06:17:15.865Z,30.25
2022-08-07T06:20:12.735Z,30.25
2022-08-07T06:23:45.931Z,30.22
2022-08-07T06:26:30.250Z,30.18
2022-08-07T06:29:21.534Z,30.25
2022-08-07T06:32:14.974Z,30.35
2022-08-07T06:35:17.795Z,30.45
2022-08-07T06:38:10.180Z,30.51
2022-08-07T06:41:14.021Z,30.55
2022-08-07T06:44:10.854Z,30.60
2022-08-07T06:47:10.588Z,30.65
2022-08-07T06:50:06.666Z,30.75
2022-08-07T06:53:04.112Z,30.85
2022-08-07T06:56:01.989Z,30.93
2022-08-07T07:00:14.656Z,30.99
2022-08-07T07:02:48.086Z,31.09
2022-08-07T07:06:03.307Z,31.18
2022-08-07T07:08:46.731Z,31.28
2022-08-07T07:12:07.442Z,31.37
2022-08-07T07:14:57.649Z,31.41
2022-08-07T07:17:54.457Z,31.41
2022-08-07T07:20:54.851Z,31.40
2022-08-07T07:24:10.219Z,31.35
2022-08-07T07:26:58.172Z,31.33
2022-08-07T07:30:08.772Z,31.35
2022-08-07T07:33:02.455Z,31.36
2022-08-07T07:36:05.398Z,31.37
2022-08-07T07:39:04.395Z,31.39
2022-08-07T07:42:13.300Z,31.38
2022-08-07T07:45:08.735Z,31.37
2022-08-07T07:48:04.057Z,31.45
2022-08-07T07:50:56.311Z,31.58
2022-08-07T07:53:52.222Z,31.69
2022-08-07T07:56:45.068Z,31.76
2022-08-07T07:59:52.498Z,31.80
2022-08-07T08:03:00.925Z,31.81
2022-08-07T08:05:56.176Z,31.80
2022-08-07T08:08:48.308Z,31.83
2022-08-07T08:12:00.102Z,31.91
2022-08-07T08:14:49.502Z,32.01
2022-08-07T08:17:57.990Z,32.03
2022-08-07T08:20:51.094Z,32.08
2022-08-07T08:24:01.815Z,32.15
2022-08-07T08:27:09.509Z,32.15
2022-08-07T08:30:03.915Z,32.13
2022-08-07T08:32:58.676Z,32.17
2022-08-07T08:35:52.615Z,32.23
2022-08-07T08:38:46.826Z,32.27
2022-08-07T08:41:58.484Z,32.32
2022-08-07T08:44:55.851Z,32.39
2022-08-07T08:47:58.304Z,32.43
2022-08-07T08:50:58.158Z,32.51
2022-08-07T08:54:02.452Z,32.63
2022-08-07T08:56:54.684Z,32.71
2022-08-07T08:59:53.634Z,32.86
2022-08-07T09:02:53.979Z,33.01
2022-08-07T09:05:54.578Z,33.14
2022-08-07T09:08:58.104Z,33.26
2022-08-07T09:12:08.963Z,33.36
2022-08-07T09:16:24.457Z,33.54
2022-08-07T09:18:58.578Z,33.70
2022-08-07T09:22:22.424Z,33.87
2022-08-07T09:25:17.832Z,34.03
2022-08-07T09:30:00.606Z,34.17
2022-08-07T09:31:27.475Z,34.32
2022-08-07T09:34:38.495Z,34.45
2022-08-07T09:37:53.512Z,34.46
2022-08-07T09:41:00.384Z,34.18
2022-08-07T09:44:06.749Z,34.01
2022-08-07T09:47:42.629Z,34.12
2022-08-07T09:50:32.088Z,34.18
2022-08-07T09:53:26.089Z,34.15
2022-08-07T09:57:00.740Z,34.17
2022-08-07T10:00:14.422Z,34.21
2022-08-07T10:04:04.752Z,34.35
2022-08-07T10:07:39.854Z,34.62
2022-08-07T10:11:07.796Z,34.74
2022-08-07T10:14:02.539Z,34.70
2022-08-07T10:17:14.375Z,34.66
2022-08-07T10:20:30.522Z,34.73
2022-08-07T10:24:06.227Z,34.94
2022-08-07T10:27:12.992Z,34.95
2022-08-07T10:30:12.351Z,34.93
2022-08-07T10:34:05.707Z,34.94
2022-08-07T10:36:53.230Z,34.99
2022-08-07T10:40:05.627Z,35.03
2022-08-07T10:43:08.907Z,35.20
2022-08-07T10:46:03.279Z,35.32
2022-08-07T10:49:04.688Z,35.23
2022-08-07T10:52:12.934Z,35.23
2022-08-07T10:55:26.937Z,35.25
2022-08-07T10:58:47.656Z,35.24
2022-08-07T11:02:05.448Z,35.27
2022-08-07T11:05:49.283Z,35.28
2022-08-07T11:08:45.255Z,35.31
2022-08-07T11:11:41.900Z,35.54
2022-08-07T11:14:45.853Z,35.73
2022-08-07T11:17:54.162Z,35.85
2022-08-07T11:20:51.315Z,36.04
2022-08-07T11:23:54.516Z,36.19
2022-08-07T11:26:50.416Z,36.36
2022-08-07T11:29:53.891Z,36.32
2022-08-07T11:33:07.932Z,36.19
2022-08-07T11:36:25.266Z,36.26
2022-08-07T11:39:58.834Z,36.37
2022-08-07T11:42:59.849Z,36.46
2022-08-07T11:46:23.408Z,36.52
2022-08-07T11:50:18.730Z,36.49
2022-08-07T11:53:15.726Z,36.41
2022-08-07T11:56:29.723Z,36.25
2022-08-07T12:00:11.550Z,36.30
2022-08-07T12:03:44.998Z,36.38
2022-08-07T12:06:56.324Z,36.13
2022-08-07T12:09:58.495Z,36.01
2022-08-07T12:13:00.989Z,36.12
2022-08-07T12:16:07.034Z,36.13
2022-08-07T12:19:14.660Z,36.23
2022-08-07T12:22:37.239Z,36.32
2022-08-07T12:26:21.931Z,36.19
2022-08-07T12:29:13.908Z,36.26
2022-08-07T12:32:13.297Z,36.20
2022-08-07T12:35:07.373Z,36.01
2022-08-07T12:38:09.313Z,35.85
2022-08-07T12:41:04.082Z,35.70
2022-08-07T12:44:05.621Z,35.64
2022-08-07T12:47:21.502Z,35.58
2022-08-07T12:50:33.994Z,35.40
2022-08-07T12:54:23.999Z,35.21
2022-08-07T12:56:50.952Z,34.95
2022-08-07T12:59:54.354Z,34.81
2022-08-07T13:03:06.812Z,34.72
2022-08-07T13:06:16.888Z,34.67
2022-08-07T13:10:19.879Z,34.53
2022-08-07T13:12:39.111Z,34.42
2022-08-07T13:15:38.633Z,34.27
2022-08-07T13:18:44.648Z,34.04
2022-08-07T13:21:54.997Z,33.82
2022-08-07T13:24:59.158Z,33.67
2022-08-07T13:28:11.617Z,33.60
2022-08-07T13:31:14.129Z,33.52
2022-08-07T13:34:33.089Z,33.44
2022-08-07T13:37:33.725Z,33.36
2022-08-07T13:40:41.708Z,33.32
2022-08-07T13:43:36.900Z,33.26
2022-08-07T13:46:36.553Z,33.16
2022-08-07T13:50:33.595Z,33.09
2022-08-07T13:52:47.152Z,33.04
2022-08-07T13:55:40.301Z,33.03
2022-08-07T13:59:05.811Z,33.02
2022-08-07T14:02:10.232Z,32.94
2022-08-07T14:05:05.591Z,32.94
2022-08-07T14:08:01.476Z,32.92
2022-08-07T14:11:01.759Z,32.92
2022-08-07T14:14:10.468Z,32.95
2022-08-07T14:17:32.133Z,32.95
2022-08-07T14:20:40.817Z,32.98
2022-08-07T14:24:00.335Z,33.01
2022-08-07T14:26:53.531Z,33.06
2022-08-07T14:30:07.836Z,33.13
2022-08-07T14:33:04.666Z,33.19
2022-08-07T14:35:59.991Z,33.29
2022-08-07T14:38:55.892Z,33.36
2022-08-07T14:42:20.069Z,33.44
2022-08-07T14:45:21.584Z,33.50
2022-08-07T14:52:03.778Z,33.51
2022-08-07T14:54:44.113Z,33.51
2022-08-07T14:57:54.834Z,33.43
2022-08-07T15:00:54.289Z,33.32
2022-08-07T15:03:51.488Z,33.14
2022-08-07T15:06:47.607Z,32.96
2022-08-07T15:09:58.408Z,32.80
2022-08-07T15:12:54.937Z,32.64
2022-08-07T15:15:53.701Z,32.58
2022-08-07T15:18:47.596Z,32.57
2022-08-07T15:22:04.178Z,32.57
2022-08-07T15:34:50.548Z,32.54
2022-08-07T15:38:18.287Z,32.57
2022-08-07T15:41:23.027Z,32.61
2022-08-07T15:44:11.495Z,32.65
2022-08-07T15:47:08.640Z,32.67
2022-08-07T15:50:04.019Z,32.70
2022-08-07T15:53:04.935Z,32.73
2022-08-07T15:56:02.944Z,32.78
2022-08-07T15:59:00.858Z,32.83
2022-08-07T16:02:02.086Z,32.87
2022-08-07T16:05:00.953Z,32.87
2022-08-07T16:08:33.393Z,32.84
2022-08-07T16:11:27.013Z,32.79
2022-08-07T16:14:30.149Z,32.71
2022-08-07T16:18:01.889Z,32.60
2022-08-07T16:21:56.838Z,32.45
2022-08-07T16:24:34.603Z,32.19
2022-08-07T16:27:40.033Z,32.23
2022-08-07T16:30:36.472Z,32.33
2022-08-07T16:34:02.679Z,32.43
2022-08-07T16:38:06.500Z,32.53
2022-08-07T16:40:35.871Z,32.60
2022-08-07T16:44:03.930Z,32.65
2022-08-07T16:51:13.445Z,32.78
2022-08-07T16:54:34.536Z,32.84
2022-08-07T16:58:01.912Z,32.87
2022-08-07T17:01:15.958Z,32.89
2022-08-07T17:04:14.948Z,32.92
2022-08-07T17:07:28.419Z,32.94
2022-08-07T17:10:54.534Z,32.98
2022-08-07T17:14:18.033Z,32.97
2022-08-07T17:17:21.556Z,32.96
2022-08-07T17:20:21.678Z,32.92
2022-08-07T17:23:41.863Z,32.90
2022-08-07T17:26:48.236Z,32.89
2022-08-07T17:30:15.686Z,32.86
2022-08-07T17:34:08.524Z,32.81
2022-08-07T17:36:32.415Z,32.79
2022-08-07T17:39:53.188Z,32.80
2022-08-07T17:43:02.295Z,32.81
2022-08-07T17:46:20.998Z,32.79
2022-08-07T17:49:30.076Z,32.74
2022-08-07T17:52:32.437Z,32.69
2022-08-07T17:55:54.778Z,32.65
2022-08-07T17:58:51.428Z,32.53
2022-08-07T18:01:48.988Z,32.31
2022-08-07T18:04:50.316Z,32.19
2022-08-07T18:07:46.856Z,32.11
2022-08-07T18:12:08.248Z,31.97
2022-08-07T18:14:06.567Z,31.78
2022-08-07T18:17:00.692Z,31.71
2022-08-07T18:21:08.362Z,31.62
2022-08-07T18:23:41.990Z,31.52
2022-08-07T18:26:49.536Z,31.36
2022-08-07T18:30:06.129Z,31.30
2022-08-07T18:33:35.921Z,31.25
2022-08-07T18:36:39.897Z,31.22
2022-08-07T18:40:06.374Z,31.20
2022-08-07T18:43:08.245Z,31.15
2022-08-07T18:46:22.365Z,31.11
2022-08-07T18:50:31.268Z,31.09
2022-08-07T18:53:02.976Z,31.10
2022-08-07T18:56:09.484Z,31.21
2022-08-07T18:59:47.782Z,31.24
2022-08-07T19:02:42.687Z,31.24
2022-08-07T19:06:03.630Z,31.27
2022-08-07T19:09:08.971Z,31.31
2022-08-07T19:12:18.879Z,31.33
2022-08-07T19:16:03.272Z,31.35
2022-08-07T19:18:45.205Z,31.36
2022-08-07T19:21:53.593Z,31.37
2022-08-07T19:24:50.647Z,31.43
2022-08-07T19:28:30.911Z,31.44
2022-08-07T19:33:59.442Z,31.55
2022-08-07T19:36:53.493Z,31.57
2022-08-07T19:39:56.860Z,31.57
2022-08-07T19:42:50.250Z,31.55
2022-08-07T19:46:05.587Z,31.49
2022-08-07T19:49:01.608Z,31.40
2022-08-07T19:52:00.687Z,31.37
2022-08-07T19:54:56.548Z,31.34
2022-08-07T19:58:04.746Z,31.31
2022-08-07T20:01:04.093Z,31.32
2022-08-07T20:04:01.506Z,31.36
2022-08-07T20:06:54.320Z,31.39
2022-08-07T20:10:35.617Z,31.40
2022-08-07T20:13:06.172Z,31.41
2022-08-07T20:15:58.391Z,31.44
2022-08-07T20:18:50.819Z,31.45
2022-08-07T20:21:48.081Z,31.45
2022-08-07T20:24:39.591Z,31.41
2022-08-07T20:27:46.016Z,31.37
2022-08-07T20:30:39.684Z,31.32
2022-08-07T20:33:38.598Z,31.30
2022-08-07T20:36:31.896Z,31.30
2022-08-07T20:40:01.245Z,31.29
2022-08-07T20:42:39.944Z,31.26
2022-08-07T20:46:28.046Z,31.22
2022-08-07T20:49:55.100Z,31.19
2022-08-07T20:51:56.869Z,31.17
2022-08-07T20:54:53.333Z,31.16
2022-08-07T20:58:02.510Z,31.14
2022-08-07T21:01:02.297Z,31.11
2022-08-07T21:04:19.776Z,31.12
2022-08-07T21:07:14.522Z,31.18
2022-08-07T21:10:25.171Z,31.23
2022-08-07T21:13:24.535Z,31.30
2022-08-07T21:16:37.763Z,31.34
2022-08-07T21:19:51.390Z,31.38
2022-08-07T21:22:55.724Z,31.43
2022-08-07T21:26:01.480Z,31.48
2022-08-07T21:29:00.664Z,31.52
2022-08-07T21:32:46.684Z,31.54
2022-08-07T21:35:34.671Z,31.53
2022-08-07T21:38:38.976Z,31.55
2022-08-07T21:42:00.750Z,31.53
2022-08-07T21:44:58.876Z,31.49
2022-08-07T21:47:59.886Z,31.44
2022-08-07T21:50:56.292Z,31.38
2022-08-07T21:53:53.718Z,31.31
2022-08-07T21:57:03.271Z,31.24
2022-08-07T22:00:04.811Z,31.20
2022-08-07T22:03:08.420Z,31.19
2022-08-07T22:06:07.842Z,31.15
2022-08-07T22:09:25.816Z,31.10
2022-08-07T22:12:24.663Z,31.13
2022-08-07T22:16:35.807Z,31.13
2022-08-07T22:18:34.946Z,31.05
2022-08-07T22:22:01.887Z,30.99
2022-08-07T22:24:54.336Z,30.90
2022-08-07T22:28:19.855Z,30.84
2022-08-07T22:31:08.186Z,30.73
2022-08-07T22:34:06.023Z,30.67
2022-08-07T22:37:12.696Z,30.60
2022-08-07T22:40:12.454Z,30.54
2022-08-07T22:43:09.045Z,30.53
2022-08-07T22:47:02.301Z,30.51
2022-08-07T22:50:05.091Z,30.47
2022-08-07T22:54:08.170Z,30.45
2022-08-07T22:57:00.718Z,30.41
2022-08-07T22:59:58.005Z,30.39
2022-08-07T23:03:06.173Z,30.37
2022-08-07T23:06:16.765Z,30.36
2022-08-07T23:10:04.474Z,30.33
2022-08-07T23:12:54.721Z,30.30
2022-08-07T23:16:07.028Z,30.28
2022-08-07T23:19:38.846Z,30.27
2022-08-07T23:22:47.466Z,30.28
2022-08-07T23:25:52.376Z,30.29
2022-08-07T23:29:43.632Z,30.32
2022-08-07T23:34:36.091Z,30.32
2022-08-07T23:36:29.728Z,30.32
2022-08-07T23:39:28.044Z,30.31
2022-08-07T23:42:34.277Z,30.32
2022-08-07T23:46:02.009Z,30.33
2022-08-07T23:49:03.370Z,30.33
2022-08-07T23:53:00.817Z,30.33
2022-08-07T23:55:53.349Z,30.32
2022-08-07T23:58:40.111Z,30.29
